createdAt,value
2022-12-16T00:02:37.546Z,19.80
2022-12-16T00:05:05.867Z,20.47
2022-12-16T00:07:33.628Z,19.50
2022-12-16T00:10:01.299Z,18.73
2022-12-16T00:12:29.209Z,19.37
2022-12-16T00:14:56.875Z,20.73
2022-12-16T00:17:24.709Z,19.67
2022-12-16T00:19:53.770Z,19.27
2022-12-16T00:22:23.910Z,20.10
2022-12-16T00:24:52.341Z,18.57
2022-12-16T00:27:20.145Z,19.30
2022-12-16T00:29:47.761Z,19.57
2022-12-16T00:32:15.459Z,19.87
2022-12-16T00:34:43.264Z,20.10
2022-12-16T00:37:14.155Z,19.77
2022-12-16T00:39:41.910Z,18.57
2022-12-16T00:42:09.609Z,19.07
2022-12-16T00:44:37.493Z,19.80
2022-12-16T00:47:05.289Z,19.83
2022-12-16T00:49:33.145Z,19.43
2022-12-16T00:52:00.929Z,21.00
2022-12-16T00:54:30.107Z,18.93
2022-12-16T00:56:57.752Z,18.43
2022-12-16T00:59:26.590Z,18.47
2022-12-16T01:01:54.583Z,19.40
2022-12-16T01:04:23.039Z,17.33
2022-12-16T01:06:50.848Z,17.70
2022-12-16T01:09:18.486Z,18.63
2022-12-16T01:11:47.608Z,16.87
2022-12-16T01:14:15.236Z,17.97
2022-12-16T01:16:42.943Z,17.10
2022-12-16T01:19:10.893Z,17.80
2022-12-16T01:21:38.609Z,17.03
2022-12-16T01:24:07.173Z,17.67
2022-12-16T01:26:34.831Z,17.83
2022-12-16T01:29:05.113Z,17.53
2022-12-16T01:31:32.902Z,17.17
2022-12-16T01:34:00.849Z,17.17
2022-12-16T01:36:28.515Z,16.43
2022-12-16T01:38:56.636Z,16.47
2022-12-16T01:41:24.336Z,16.93
2022-12-16T01:43:52.097Z,17.80
2022-12-16T01:46:22.604Z,17.70
2022-12-16T01:48:52.870Z,18.23
2022-12-16T01:51:23.797Z,18.07
2022-12-16T01:53:52.028Z,17.30
2022-12-16T01:56:23.249Z,17.27
2022-12-16T01:58:51.148Z,17.30
2022-12-16T02:01:23.570Z,16.20
2022-12-16T02:03:51.534Z,15.63
2022-12-16T02:06:20.902Z,16.23
2022-12-16T02:08:49.129Z,16.37
2022-12-16T02:11:28.902Z,16.83
2022-12-16T02:14:16.087Z,15.37
2022-12-16T02:16:47.977Z,16.57
2022-12-16T02:19:28.042Z,16.77
2022-12-16T02:21:58.338Z,16.83
2022-12-16T02:25:03.424Z,16.07
2022-12-16T02:27:42.089Z,16.40
2022-12-16T02:30:23.310Z,15.93
2022-12-16T02:32:54.776Z,16.60
2022-12-16T02:35:26.566Z,15.63
2022-12-16T02:37:57.950Z,16.50
2022-12-16T02:40:27.959Z,15.00
2022-12-16T02:42:57.107Z,15.60
2022-12-16T02:45:27.742Z,15.87
2022-12-16T02:47:55.820Z,16.70
2022-12-16T02:50:25.126Z,16.00
2022-12-16T02:52:52.839Z,15.20
2022-12-16T02:55:20.894Z,14.57
2022-12-16T02:58:08.960Z,15.00
2022-12-16T03:00:42.229Z,15.87
2022-12-16T03:03:10.922Z,16.50
2022-12-16T03:05:40.863Z,16.03
2022-12-16T03:08:10.184Z,14.67
2022-12-16T03:10:39.737Z,15.83
2022-12-16T03:13:07.407Z,16.40
2022-12-16T03:15:35.358Z,15.97
2022-12-16T03:18:04.813Z,15.47
2022-12-16T03:20:34.900Z,14.27
2022-12-16T03:23:04.054Z,15.50
2022-12-16T03:25:31.877Z,14.17
2022-12-16T03:28:01.662Z,16.10
2022-12-16T03:30:31.039Z,16.07
2022-12-16T03:33:00.265Z,16.00
2022-12-16T03:35:33.295Z,15.03
2022-12-16T03:38:01.107Z,15.13
2022-12-16T03:40:28.985Z,15.07
2022-12-16T03:42:56.645Z,14.70
2022-12-16T03:45:25.763Z,15.47
2022-12-16T03:47:53.643Z,15.30
2022-12-16T03:50:25.176Z,14.23
2022-12-16T03:52:54.259Z,14.83
2022-12-16T03:55:21.961Z,14.77
2022-12-16T03:57:49.788Z,15.70
2022-12-16T04:00:17.966Z,14.23
2022-12-16T04:02:45.759Z,14.80
2022-12-16T04:05:14.024Z,14.63
2022-12-16T04:07:41.703Z,13.90
2022-12-16T04:10:11.038Z,15.00
2022-12-16T04:12:56.543Z,14.30
2022-12-16T04:15:41.627Z,14.47
2022-12-16T04:18:28.082Z,14.03
2022-12-16T04:21:13.984Z,13.70
2022-12-16T04:24:02.232Z,14.97
2022-12-16T04:26:31.203Z,14.87
2022-12-16T04:28:59.149Z,14.10
2022-12-16T04:31:27.056Z,14.67
2022-12-16T04:34:12.535Z,13.60
2022-12-16T04:36:59.041Z,14.13
2022-12-16T04:39:44.097Z,14.37
2022-12-16T04:42:31.944Z,12.37
2022-12-16T04:45:17.545Z,13.53
2022-12-16T04:48:02.986Z,13.73
2022-12-16T04:50:48.177Z,13.20
2022-12-16T04:53:34.047Z,14.33
2022-12-16T04:56:19.749Z,13.33
2022-12-16T04:59:06.551Z,13.87
2022-12-16T05:01:51.901Z,13.77
2022-12-16T05:04:37.237Z,14.00
2022-12-16T05:07:22.658Z,13.73
2022-12-16T05:10:07.962Z,13.67
2022-12-16T05:12:53.427Z,13.43
2022-12-16T05:15:40.076Z,13.37
2022-12-16T05:18:28.575Z,13.87
2022-12-16T05:21:13.881Z,11.90
2022-12-16T05:23:59.239Z,14.07
2022-12-16T05:26:44.414Z,14.10
2022-12-16T05:29:29.766Z,13.20
2022-12-16T05:32:16.419Z,13.67
2022-12-16T05:35:01.875Z,15.03
2022-12-16T05:37:47.351Z,13.37
2022-12-16T05:40:32.430Z,13.20
2022-12-16T05:43:17.785Z,12.87
2022-12-16T05:46:03.072Z,14.37
2022-12-16T05:48:49.675Z,13.77
2022-12-16T05:51:35.027Z,12.80
2022-12-16T05:54:20.123Z,12.77
2022-12-16T05:57:05.199Z,13.10
2022-12-16T06:02:18.399Z,13.40
2022-12-16T06:05:05.356Z,12.47
2022-12-16T06:07:50.803Z,12.40
2022-12-16T06:10:35.889Z,13.67
2022-12-16T06:13:21.560Z,12.63
2022-12-16T06:16:09.140Z,11.67
2022-12-16T06:18:54.876Z,11.73
2022-12-16T06:21:42.009Z,11.40
2022-12-16T06:24:27.468Z,11.80
2022-12-16T06:27:12.662Z,11.83
2022-12-16T06:29:58.319Z,12.83
2022-12-16T06:32:43.403Z,12.60
2022-12-16T06:35:28.581Z,12.53
2022-12-16T06:38:15.381Z,12.97
2022-12-16T06:41:00.571Z,13.37
2022-12-16T06:43:46.036Z,13.07
2022-12-16T06:46:31.246Z,12.67
2022-12-16T06:49:16.594Z,13.40
2022-12-16T06:52:01.690Z,13.97
2022-12-16T06:54:48.420Z,13.03
2022-12-16T06:57:33.765Z,13.67
2022-12-16T07:00:18.970Z,14.23
2022-12-16T07:03:04.708Z,13.97
2022-12-16T07:05:50.308Z,12.97
2022-12-16T07:08:35.775Z,13.00
2022-12-16T07:11:22.381Z,13.90
2022-12-16T07:14:07.739Z,15.13
2022-12-16T07:17:02.495Z,13.23
2022-12-16T07:19:47.726Z,14.07
2022-12-16T07:22:34.270Z,11.97
2022-12-16T07:28:27.399Z,12.63
2022-12-16T07:31:16.506Z,11.80
2022-12-16T07:37:17.819Z,12.23
2022-12-16T07:40:03.599Z,12.30
2022-12-16T07:42:45.429Z,12.87
2022-12-16T07:45:37.105Z,12.60
2022-12-16T07:48:25.069Z,12.60
2022-12-16T07:51:10.658Z,12.90
2022-12-16T07:53:56.136Z,12.97
2022-12-16T07:56:41.814Z,13.30
2022-12-16T07:59:27.294Z,12.33
2022-12-16T08:02:14.288Z,12.73
2022-12-16T08:05:12.638Z,12.50
2022-12-16T08:07:58.551Z,12.37
2022-12-16T08:10:44.164Z,11.47
2022-12-16T08:13:29.779Z,12.87
2022-12-16T08:16:15.646Z,13.50
2022-12-16T08:19:07.575Z,13.63
2022-12-16T08:21:56.474Z,12.50
2022-12-16T08:24:41.237Z,12.13
2022-12-16T08:27:26.673Z,13.67
2022-12-16T08:30:17.385Z,13.00
2022-12-16T08:33:12.110Z,12.80
2022-12-16T08:36:07.283Z,15.30
2022-12-16T08:38:52.998Z,14.30
2022-12-16T08:41:38.628Z,12.47
2022-12-16T08:44:24.404Z,11.83
2022-12-16T08:47:09.860Z,12.53
2022-12-16T08:49:57.907Z,14.47
2022-12-16T08:52:48.662Z,16.93
2022-12-16T08:55:48.631Z,14.93
2022-12-16T08:58:33.950Z,15.73
2022-12-16T09:01:19.499Z,14.43
2022-12-16T09:04:05.076Z,12.43
2022-12-16T09:06:52.421Z,14.20
2022-12-16T09:09:39.180Z,14.00
2022-12-16T09:12:25.181Z,13.57
2022-12-16T09:15:10.604Z,14.03
2022-12-16T09:17:55.897Z,14.30
2022-12-16T09:20:41.983Z,14.40
2022-12-16T09:23:29.503Z,14.93
2022-12-16T09:26:17.777Z,14.83
2022-12-16T09:29:06.927Z,15.67
2022-12-16T09:31:52.446Z,14.70
2022-12-16T09:34:37.946Z,15.20
2022-12-16T09:37:23.473Z,15.40
2022-12-16T09:40:09.041Z,15.17
2022-12-16T09:42:59.988Z,15.20
2022-12-16T09:45:53.361Z,15.03
2022-12-16T09:48:41.285Z,16.00
2022-12-16T09:51:27.041Z,15.90
2022-12-16T09:54:13.108Z,16.17
2022-12-16T09:56:58.530Z,15.07
2022-12-16T09:59:46.897Z,16.33
2022-12-16T10:02:33.383Z,14.73
2022-12-16T10:05:18.983Z,15.97
2022-12-16T10:08:19.133Z,15.47
2022-12-16T10:11:07.389Z,15.37
2022-12-16T10:13:55.796Z,14.40
2022-12-16T10:16:46.805Z,16.27
2022-12-16T10:19:40.531Z,14.87
2022-12-16T10:25:46.191Z,13.63
2022-12-16T10:28:34.856Z,13.10
2022-12-16T10:31:20.545Z,14.23
2022-12-16T10:34:08.284Z,13.23
2022-12-16T10:36:55.396Z,13.57
2022-12-16T10:39:44.806Z,14.30
2022-12-16T10:42:35.402Z,13.73
2022-12-16T10:45:20.528Z,13.17
2022-12-16T10:48:05.861Z,14.10
2022-12-16T10:50:52.607Z,13.60
2022-12-16T10:53:41.236Z,12.70
2022-12-16T10:56:33.373Z,12.93
2022-12-16T10:59:20.308Z,14.00
2022-12-16T11:02:16.063Z,13.13
2022-12-16T11:05:06.746Z,13.38
2022-12-16T11:07:56.744Z,13.07
2022-12-16T11:10:52.939Z,13.85
2022-12-16T11:13:40.945Z,14.40
2022-12-16T11:16:29.451Z,13.38
2022-12-16T11:19:16.105Z,12.40
2022-12-16T11:22:01.553Z,12.43
2022-12-16T11:24:48.728Z,12.20
2022-12-16T11:27:40.534Z,11.55
2022-12-16T11:30:37.571Z,12.13
2022-12-16T11:33:29.004Z,12.13
2022-12-16T11:36:23.997Z,11.18
2022-12-16T11:39:11.830Z,11.77
2022-12-16T11:41:59.943Z,10.35
2022-12-16T11:44:47.050Z,11.25
2022-12-16T11:47:39.094Z,10.85
2022-12-16T11:50:30.547Z,10.80
2022-12-16T11:53:15.813Z,10.48
2022-12-16T11:56:10.786Z,11.30
2022-12-16T11:59:01.531Z,11.07
2022-12-16T12:01:48.805Z,10.75
2022-12-16T12:04:34.516Z,11.13
2022-12-16T12:07:44.643Z,10.32
2022-12-16T12:10:52.331Z,13.20
2022-12-16T12:13:46.970Z,9.32
2022-12-16T12:16:36.805Z,8.63
2022-12-16T12:19:43.791Z,9.75
2022-12-16T12:22:31.370Z,9.63
2022-12-16T12:25:33.127Z,7.32
2022-12-16T12:28:21.014Z,8.35
2022-12-16T12:31:11.661Z,8.48
2022-12-16T12:34:12.855Z,9.05
2022-12-16T12:37:04.954Z,9.30
2022-12-16T12:39:53.878Z,8.80
2022-12-16T12:42:49.277Z,8.52
2022-12-16T12:45:48.213Z,8.80
2022-12-16T12:48:35.999Z,8.95
2022-12-16T12:51:26.503Z,7.80
2022-12-16T12:54:15.004Z,7.10
2022-12-16T12:57:01.957Z,7.00
2022-12-16T12:59:48.421Z,6.75
2022-12-16T13:02:34.611Z,6.93
2022-12-16T13:05:24.322Z,6.27
2022-12-16T13:08:11.838Z,8.03
2022-12-16T13:11:09.280Z,5.50
2022-12-16T13:13:55.640Z,5.33
2022-12-16T13:17:25.468Z,5.57
2022-12-16T13:20:15.661Z,5.47
2022-12-16T13:23:01.918Z,4.93
2022-12-16T13:26:01.763Z,4.60
2022-12-16T13:28:48.379Z,4.30
2022-12-16T13:31:33.936Z,8.73
2022-12-16T13:34:22.671Z,17.70
2022-12-16T13:37:19.539Z,19.77
2022-12-16T13:40:19.202Z,24.13
2022-12-16T13:43:13.202Z,25.07
2022-12-16T13:46:00.318Z,24.10
2022-12-16T13:48:56.667Z,24.97
2022-12-16T13:52:26.657Z,26.70
2022-12-16T13:55:24.629Z,25.67
2022-12-16T13:58:11.371Z,27.10
2022-12-16T14:00:58.681Z,27.67
2022-12-16T14:03:55.342Z,30.07
2022-12-16T14:06:41.928Z,27.73
2022-12-16T14:09:37.243Z,28.17
2022-12-16T14:12:35.349Z,28.20
2022-12-16T14:15:29.089Z,28.20
2022-12-16T14:18:17.860Z,28.30
2022-12-16T14:21:06.969Z,28.50
2022-12-16T14:23:57.424Z,28.90
2022-12-16T14:26:43.535Z,28.47
2022-12-16T14:29:36.004Z,28.57
2022-12-16T14:32:21.979Z,28.87
2022-12-16T14:35:09.740Z,29.27
2022-12-16T14:37:56.092Z,29.97
2022-12-16T14:40:42.448Z,29.23
2022-12-16T14:43:31.042Z,30.30
2022-12-16T14:46:16.844Z,29.43
2022-12-16T14:49:04.522Z,29.60
2022-12-16T14:51:52.093Z,30.37
2022-12-16T14:54:39.749Z,30.77
2022-12-16T14:57:29.561Z,31.07
2022-12-16T15:00:31.139Z,31.70
2022-12-16T15:03:19.060Z,29.97
2022-12-16T15:06:04.959Z,29.40
2022-12-16T15:08:53.615Z,32.13
2022-12-16T15:11:39.991Z,33.03
2022-12-16T15:14:25.399Z,32.00
2022-12-16T15:17:11.274Z,31.77
2022-12-16T15:20:03.106Z,30.20
2022-12-16T15:22:48.964Z,29.97
2022-12-16T15:25:40.258Z,31.33
2022-12-16T15:28:41.062Z,29.73
2022-12-16T15:31:32.697Z,31.27
2022-12-16T15:34:36.297Z,31.90
2022-12-16T15:37:22.733Z,36.73
2022-12-16T15:40:08.207Z,32.37
2022-12-16T15:43:00.988Z,31.73
2022-12-16T15:45:49.497Z,32.90
2022-12-16T15:48:37.757Z,33.63
2022-12-16T15:51:34.699Z,32.57
2022-12-16T15:54:20.705Z,32.00
2022-12-16T15:57:07.205Z,34.57
2022-12-16T15:59:54.828Z,33.80
2022-12-16T16:02:41.543Z,34.53
2022-12-16T16:05:30.951Z,33.67
2022-12-16T16:08:16.426Z,31.90
2022-12-16T16:11:03.449Z,33.97
2022-12-16T16:13:52.884Z,33.67
2022-12-16T16:16:39.793Z,34.20
2022-12-16T16:19:28.582Z,33.60
2022-12-16T16:22:14.177Z,33.40
2022-12-16T16:24:59.824Z,34.97
2022-12-16T16:27:45.500Z,36.07
2022-12-16T16:30:31.968Z,36.40
2022-12-16T16:33:19.519Z,34.77
2022-12-16T16:36:05.136Z,35.60
2022-12-16T16:39:02.788Z,35.13
2022-12-16T16:41:48.565Z,34.10
2022-12-16T16:44:34.383Z,34.80
2022-12-16T16:47:20.100Z,36.67
2022-12-16T16:50:07.363Z,36.23
2022-12-16T16:52:52.550Z,36.97
2022-12-16T16:55:39.587Z,36.13
2022-12-16T16:58:26.268Z,35.43
2022-12-16T17:01:12.065Z,37.57
2022-12-16T17:03:57.964Z,36.13
2022-12-16T17:06:45.674Z,36.30
2022-12-16T17:09:31.413Z,36.27
2022-12-16T17:12:22.220Z,38.70
2022-12-16T17:18:52.177Z,37.40
2022-12-16T17:21:41.730Z,36.33
2022-12-16T17:24:31.862Z,37.93
2022-12-16T17:27:20.537Z,40.73
2022-12-16T17:30:06.169Z,37.33
2022-12-16T17:32:51.936Z,39.27
2022-12-16T17:35:37.529Z,40.50
2022-12-16T17:38:22.747Z,41.93
2022-12-16T17:41:11.899Z,42.47
2022-12-16T17:43:57.942Z,42.23
2022-12-16T17:46:43.273Z,45.83
2022-12-16T17:49:28.951Z,44.47
2022-12-16T17:52:14.665Z,44.93
2022-12-16T17:55:00.298Z,43.80
2022-12-16T17:57:48.466Z,41.97
2022-12-16T18:00:36.323Z,43.63
2022-12-16T18:03:22.384Z,46.37
2022-12-16T18:06:08.318Z,45.33
2022-12-16T18:08:53.758Z,45.93
2022-12-16T18:11:47.708Z,44.63
2022-12-16T18:14:34.463Z,45.53
2022-12-16T18:17:20.090Z,43.97
2022-12-16T18:20:05.904Z,41.47
2022-12-16T18:22:54.368Z,43.43
2022-12-16T18:25:40.285Z,43.17
2022-12-16T18:28:25.820Z,43.37
2022-12-16T18:31:12.853Z,42.10
2022-12-16T18:33:58.462Z,42.33
2022-12-16T18:36:43.986Z,43.07
2022-12-16T18:39:30.655Z,42.40
2022-12-16T18:42:16.051Z,44.73
2022-12-16T18:45:07.187Z,44.50
2022-12-16T18:47:54.662Z,46.57
2022-12-16T18:50:40.919Z,45.50
2022-12-16T18:53:26.503Z,43.77
2022-12-16T18:56:19.437Z,45.00
2022-12-16T18:59:06.937Z,44.10
2022-12-16T19:01:52.347Z,51.17
2022-12-16T19:04:39.622Z,44.00
2022-12-16T19:07:25.134Z,43.47
2022-12-16T19:10:10.490Z,44.23
2022-12-16T19:12:56.478Z,45.90
2022-12-16T19:15:41.933Z,42.87
2022-12-16T19:18:27.836Z,44.63
2022-12-16T19:21:15.131Z,45.37
2022-12-16T19:24:00.444Z,43.87
2022-12-16T19:26:45.963Z,45.03
2022-12-16T19:29:31.391Z,45.43
2022-12-16T19:32:16.867Z,43.90
2022-12-16T19:35:02.316Z,46.33
2022-12-16T19:37:48.878Z,44.00
2022-12-16T19:40:34.501Z,44.17
2022-12-16T19:43:19.091Z,48.17
2022-12-16T19:46:10.451Z,42.87
2022-12-16T19:51:29.624Z,42.67
2022-12-16T19:54:16.188Z,41.87
2022-12-16T19:57:01.521Z,40.97
2022-12-16T19:59:46.935Z,41.57
2022-12-16T20:02:33.346Z,43.90
2022-12-16T20:05:18.569Z,41.20
2022-12-16T20:08:03.861Z,43.10
2022-12-16T20:10:50.555Z,45.90
2022-12-16T20:13:40.238Z,41.40
2022-12-16T20:16:27.646Z,42.43
2022-12-16T20:22:22.125Z,45.33
2022-12-16T20:25:07.443Z,42.00
2022-12-16T20:27:54.143Z,43.63
2022-12-16T20:30:41.694Z,44.47
2022-12-16T20:33:31.180Z,43.17
2022-12-16T20:36:17.131Z,44.80
2022-12-16T20:39:02.712Z,41.90
2022-12-16T20:41:49.179Z,44.13
2022-12-16T20:44:35.746Z,43.07
2022-12-16T20:47:21.121Z,42.47
2022-12-16T20:50:06.698Z,41.00
2022-12-16T20:52:52.055Z,42.00
2022-12-16T20:55:37.141Z,40.97
2022-12-16T20:58:22.513Z,39.67
2022-12-16T21:01:10.856Z,39.10
2022-12-16T21:03:56.230Z,41.30
2022-12-16T21:06:42.684Z,38.47
2022-12-16T21:09:27.724Z,37.17
2022-12-16T21:12:13.078Z,39.03
2022-12-16T21:14:58.062Z,39.27
2022-12-16T21:17:45.065Z,39.93
2022-12-16T21:20:30.349Z,38.33
2022-12-16T21:23:18.885Z,38.60
2022-12-16T21:26:03.970Z,38.13
2022-12-16T21:28:53.340Z,34.63
2022-12-16T21:31:42.703Z,37.57
2022-12-16T21:34:31.172Z,34.73
2022-12-16T21:37:19.581Z,34.13
2022-12-16T21:40:04.780Z,32.87
2022-12-16T21:42:56.406Z,32.57
2022-12-16T21:45:41.954Z,32.60
2022-12-16T21:48:29.610Z,32.97
2022-12-16T21:51:16.426Z,34.13
2022-12-16T21:54:04.888Z,34.07
2022-12-16T21:56:53.212Z,33.33
2022-12-16T21:59:47.269Z,32.67
2022-12-16T22:02:32.688Z,33.17
2022-12-16T22:05:18.157Z,34.47
2022-12-16T22:08:05.780Z,34.93
2022-12-16T22:10:50.857Z,32.77
2022-12-16T22:13:45.778Z,36.43
2022-12-16T22:16:31.057Z,33.10
2022-12-16T22:19:15.594Z,35.10
2022-12-16T22:22:01.092Z,35.67
2022-12-16T22:24:49.034Z,33.47
2022-12-16T22:27:34.276Z,36.83
2022-12-16T22:30:19.452Z,35.53
2022-12-16T22:33:04.824Z,35.07
2022-12-16T22:35:50.446Z,36.07
2022-12-16T22:38:35.584Z,34.83
2022-12-16T22:41:22.294Z,34.90
2022-12-16T22:44:07.464Z,31.47
2022-12-16T22:46:52.858Z,33.33
2022-12-16T22:49:41.713Z,32.83
2022-12-16T22:52:27.106Z,33.67
2022-12-16T22:55:12.235Z,31.97
2022-12-16T22:57:59.029Z,33.50
2022-12-16T23:00:43.990Z,32.67
2022-12-16T23:03:33.272Z,29.63
2022-12-16T23:06:18.498Z,29.00
2022-12-16T23:09:03.833Z,32.13
2022-12-16T23:11:51.170Z,30.03
2022-12-16T23:14:42.745Z,30.83
2022-12-16T23:17:29.368Z,30.17
2022-12-16T23:20:14.752Z,30.47
2022-12-16T23:22:59.672Z,30.77
2022-12-16T23:25:45.112Z,29.77
2022-12-16T23:28:30.469Z,29.77
2022-12-16T23:31:17.204Z,31.47
2022-12-16T23:34:02.362Z,30.20
2022-12-16T23:36:47.567Z,29.10
2022-12-16T23:39:29.560Z,29.53
2022-12-16T23:42:15.382Z,25.40
2022-12-16T23:45:01.825Z,25.40
2022-12-16T23:47:48.580Z,25.77
2022-12-16T23:50:34.167Z,23.17
2022-12-16T23:53:22.568Z,23.47
2022-12-16T23:56:07.651Z,20.27
2022-12-16T23:58:52.404Z,18.77
